createdAt,value
2016-05-03T00:00:35.868Z,51
2016-05-03T00:00:48.196Z,51
2016-05-03T00:01:00.946Z,51
2016-05-03T00:01:13.352Z,51
2016-05-03T00:01:25.808Z,51
2016-05-03T00:02:35.841Z,51
2016-05-03T00:02:48.420Z,51
2016-05-03T00:03:01.060Z,51
2016-05-03T00:04:06.048Z,52
2016-05-03T00:05:09.019Z,52
2016-05-03T00:05:21.441Z,52
2016-05-03T00:05:33.897Z,52
2016-05-03T00:05:47.632Z,52
2016-05-03T00:06:00.663Z,52
2016-05-03T00:06:12.991Z,52
2016-05-03T00:06:25.587Z,52
2016-05-03T00:06:37.993Z,52
2016-05-03T00:07:45.246Z,52
2016-05-03T00:08:48.826Z,52
2016-05-03T00:09:01.326Z,52
2016-05-03T00:09:13.873Z,52
2016-05-03T00:09:26.471Z,52
2016-05-03T00:09:38.861Z,52
2016-05-03T00:09:51.408Z,52
2016-05-03T00:11:55.960Z,52
2016-05-03T00:12:08.976Z,52
2016-05-03T00:12:21.523Z,52
2016-05-03T00:12:34.104Z,52
2016-05-03T00:12:46.588Z,52
2016-05-03T00:12:59.026Z,52
2016-05-03T00:13:11.416Z,52
2016-05-03T00:13:24.028Z,52
2016-05-03T00:13:36.434Z,52
2016-05-03T00:13:48.871Z,52
2016-05-03T00:14:01.481Z,52
2016-05-03T00:14:14.043Z,52
2016-05-03T00:14:26.359Z,52
2016-05-03T00:15:33.784Z,52
2016-05-03T00:15:46.362Z,52
2016-05-03T00:15:58.721Z,52
2016-05-03T00:16:11.206Z,52
2016-05-03T00:16:23.768Z,52
2016-05-03T00:16:36.348Z,52
2016-05-03T00:16:48.817Z,52
2016-05-03T00:17:01.348Z,52
2016-05-03T00:17:14.020Z,52
2016-05-03T00:17:26.461Z,52
2016-05-03T00:17:38.851Z,52
2016-05-03T00:17:51.507Z,53
2016-05-03T00:18:03.929Z,53
2016-05-03T00:18:16.351Z,53
2016-05-03T00:18:28.932Z,52
2016-05-03T00:18:41.385Z,52
2016-05-03T00:18:53.932Z,52
2016-05-03T00:19:06.339Z,52
2016-05-03T00:19:18.948Z,52
2016-05-03T00:19:31.279Z,52
2016-05-03T00:20:38.703Z,52
2016-05-03T00:20:51.187Z,53
2016-05-03T00:21:03.656Z,53
2016-05-03T00:22:17.628Z,53
2016-05-03T00:22:31.631Z,53
2016-05-03T00:22:44.084Z,53
2016-05-03T00:22:56.787Z,53
2016-05-03T00:23:09.600Z,53
2016-05-03T00:23:22.021Z,53
2016-05-03T00:23:34.477Z,52
2016-05-03T00:23:46.820Z,52
2016-05-03T00:23:59.398Z,52
2016-05-03T00:24:11.930Z,52
2016-05-03T00:24:24.336Z,53
2016-05-03T00:24:36.901Z,52
2016-05-03T00:24:49.480Z,53
2016-05-03T00:26:01.231Z,52
2016-05-03T00:26:14.715Z,53
2016-05-03T00:26:28.018Z,53
2016-05-03T00:26:40.518Z,53
2016-05-03T00:27:48.728Z,53
2016-05-03T00:28:02.470Z,53
2016-05-03T00:28:17.003Z,53
2016-05-03T00:29:28.602Z,53
2016-05-03T00:29:41.039Z,53
2016-05-03T00:30:51.296Z,53
2016-05-03T00:31:03.812Z,53
2016-05-03T00:31:16.312Z,53
2016-05-03T00:31:29.675Z,53
2016-05-03T00:31:42.269Z,53
2016-05-03T00:32:48.710Z,53
2016-05-03T00:33:01.303Z,54
2016-05-03T00:33:13.991Z,53
2016-05-03T00:34:18.696Z,53
2016-05-03T00:35:31.218Z,54
2016-05-03T00:35:43.530Z,54
2016-05-03T00:36:03.327Z,54
2016-05-03T00:36:15.765Z,54
2016-05-03T00:36:28.188Z,54
2016-05-03T00:36:41.048Z,54
2016-05-03T00:36:53.688Z,54
2016-05-03T00:37:10.845Z,54
2016-05-03T00:37:25.048Z,54
2016-05-03T00:37:37.601Z,54
2016-05-03T00:37:50.476Z,54
2016-05-03T00:39:51.262Z,54
2016-05-03T00:40:03.715Z,54
2016-05-03T00:40:16.246Z,54
2016-05-03T00:40:28.702Z,54
2016-05-03T00:40:41.046Z,54
2016-05-03T00:40:53.718Z,54
2016-05-03T00:42:01.189Z,54
2016-05-03T00:43:08.865Z,54
2016-05-03T00:43:21.505Z,54
2016-05-03T00:43:33.898Z,54
2016-05-03T00:43:46.257Z,54
2016-05-03T00:43:58.851Z,54
2016-05-03T00:44:11.335Z,54
2016-05-03T00:44:23.851Z,54
2016-05-03T00:44:36.229Z,54
2016-05-03T00:44:48.807Z,54
2016-05-03T00:45:01.370Z,54
2016-05-03T00:45:13.823Z,54
2016-05-03T00:45:26.370Z,54
2016-05-03T00:46:38.656Z,54
2016-05-03T00:46:51.031Z,54
2016-05-03T00:47:04.328Z,54
2016-05-03T00:47:16.875Z,54
2016-05-03T00:47:29.312Z,54
2016-05-03T00:47:41.737Z,54
2016-05-03T00:47:54.143Z,54
2016-05-03T00:48:06.737Z,54
2016-05-03T00:48:19.362Z,54
2016-05-03T00:48:31.615Z,54
2016-05-03T00:48:44.131Z,54
2016-05-03T00:48:56.693Z,54
2016-05-03T00:49:09.256Z,54
2016-05-03T00:49:21.724Z,54
2016-05-03T00:49:34.351Z,54
2016-05-03T00:49:46.742Z,54
2016-05-03T00:49:59.195Z,54
2016-05-03T00:50:11.851Z,54
2016-05-03T00:50:24.336Z,54
2016-05-03T00:50:36.792Z,54
2016-05-03T00:50:49.245Z,54
2016-05-03T00:51:01.667Z,54
2016-05-03T00:52:11.264Z,54
2016-05-03T00:52:25.248Z,54
2016-05-03T00:53:28.750Z,54
2016-05-03T00:53:41.284Z,54
2016-05-03T00:53:53.753Z,54
2016-05-03T00:54:06.050Z,54
2016-05-03T00:54:18.628Z,54
2016-05-03T00:54:31.147Z,54
2016-05-03T00:54:43.365Z,54
2016-05-03T00:54:55.990Z,54
2016-05-03T00:55:08.490Z,54
2016-05-03T00:55:20.865Z,54
2016-05-03T00:55:34.195Z,54
2016-05-03T00:55:46.742Z,54
2016-05-03T00:56:51.198Z,54
2016-05-03T00:57:03.777Z,54
2016-05-03T00:57:16.370Z,54
2016-05-03T00:57:28.745Z,54
2016-05-03T00:58:33.813Z,54
2016-05-03T00:58:46.969Z,54
2016-05-03T00:58:59.328Z,54
2016-05-03T01:00:08.831Z,54
2016-05-03T01:01:18.647Z,54
2016-05-03T01:01:31.272Z,54
2016-05-03T01:01:43.743Z,54
2016-05-03T01:01:56.149Z,54
2016-05-03T01:02:08.711Z,54
2016-05-03T01:03:18.606Z,54
2016-05-03T01:03:30.965Z,54
2016-05-03T01:03:43.546Z,54
2016-05-03T01:04:48.610Z,54
2016-05-03T01:05:52.161Z,54
2016-05-03T01:06:04.786Z,54
2016-05-03T01:06:17.255Z,54
2016-05-03T01:06:29.770Z,54
2016-05-03T01:07:38.603Z,54
2016-05-03T01:07:51.119Z,54
2016-05-03T01:08:03.697Z,54
2016-05-03T01:08:16.135Z,54
2016-05-03T01:08:28.432Z,54
2016-05-03T01:10:31.281Z,54
2016-05-03T01:10:43.657Z,54
2016-05-03T01:10:56.173Z,54
2016-05-03T01:11:08.814Z,54
2016-05-03T01:11:21.314Z,54
2016-05-03T01:11:33.657Z,54
2016-05-03T01:12:41.304Z,54
2016-05-03T01:13:48.822Z,54
2016-05-03T01:14:01.165Z,54
2016-05-03T01:14:13.556Z,54
2016-05-03T01:14:26.197Z,54
2016-05-03T01:14:38.513Z,54
2016-05-03T01:14:50.966Z,54
2016-05-03T01:15:03.513Z,54
2016-05-03T01:15:15.888Z,54
2016-05-03T01:15:28.310Z,54
2016-05-03T01:15:40.874Z,54
2016-05-03T01:15:53.390Z,54
2016-05-03T01:16:05.843Z,54
2016-05-03T01:17:08.612Z,54
2016-05-03T01:17:21.034Z,54
2016-05-03T01:17:34.049Z,54
2016-05-03T01:17:46.598Z,54
2016-05-03T01:17:58.817Z,54
2016-05-03T01:18:11.254Z,54
2016-05-03T01:18:23.848Z,54
2016-05-03T01:18:36.227Z,54
2016-05-03T01:18:48.727Z,54
2016-05-03T01:19:01.368Z,54
2016-05-03T01:19:13.758Z,54
2016-05-03T01:19:26.227Z,54
2016-05-03T01:19:38.682Z,54
2016-05-03T01:19:51.292Z,54
2016-05-03T01:20:03.714Z,54
2016-05-03T01:20:16.104Z,54
2016-05-03T01:20:28.620Z,54
2016-05-03T01:20:41.123Z,54
2016-05-03T01:20:53.451Z,54
2016-05-03T01:21:05.998Z,54
2016-05-03T01:21:18.592Z,54
2016-05-03T01:21:30.951Z,54
2016-05-03T01:22:42.081Z,54
2016-05-03T01:23:48.600Z,54
2016-05-03T01:24:01.178Z,54
2016-05-03T01:24:13.568Z,54
2016-05-03T01:24:25.975Z,54
2016-05-03T01:24:39.243Z,54
2016-05-03T01:24:51.712Z,54
2016-05-03T01:25:04.165Z,54
2016-05-03T01:25:16.931Z,54
2016-05-03T01:25:29.415Z,54
2016-05-03T01:25:41.714Z,54
2016-05-03T01:25:54.339Z,54
2016-05-03T01:26:06.886Z,54
2016-05-03T01:26:19.214Z,54
2016-05-03T01:27:23.873Z,54
2016-05-03T01:27:36.358Z,54
2016-05-03T01:27:48.923Z,54
2016-05-03T01:28:01.517Z,54
2016-05-03T01:29:05.988Z,54
2016-05-03T01:29:18.613Z,54
2016-05-03T01:30:21.256Z,54
2016-05-03T01:30:33.584Z,55
2016-05-03T01:31:41.247Z,55
2016-05-03T01:31:53.747Z,55
2016-05-03T01:32:06.122Z,55
2016-05-03T01:32:18.731Z,55
2016-05-03T01:32:31.340Z,55
2016-05-03T01:33:41.267Z,55
2016-05-03T01:33:53.892Z,55
2016-05-03T01:34:06.361Z,55
2016-05-03T01:35:12.067Z,55
2016-05-03T01:36:21.335Z,55
2016-05-03T01:36:33.585Z,55
2016-05-03T01:36:45.947Z,55
2016-05-03T01:36:59.525Z,55
2016-05-03T01:37:13.728Z,55
2016-05-03T01:38:21.263Z,55
2016-05-03T01:38:34.513Z,55
2016-05-03T01:38:46.890Z,55
2016-05-03T01:38:59.311Z,55
2016-05-03T01:39:11.780Z,55
2016-05-03T01:41:21.333Z,55
2016-05-03T01:41:33.927Z,54
2016-05-03T01:41:46.242Z,54
2016-05-03T01:41:58.570Z,54
2016-05-03T01:42:11.211Z,54
2016-05-03T01:42:23.649Z,54
2016-05-03T01:43:31.213Z,54
2016-05-03T01:44:38.904Z,54
2016-05-03T01:44:51.234Z,54
2016-05-03T01:45:03.562Z,54
2016-05-03T01:45:16.156Z,54
2016-05-03T01:45:28.781Z,55
2016-05-03T01:45:41.296Z,55
2016-05-03T01:45:53.674Z,55
2016-05-03T01:46:06.112Z,55
2016-05-03T01:46:18.768Z,55
2016-05-03T01:46:31.784Z,55
2016-05-03T01:46:44.193Z,55
2016-05-03T01:46:56.802Z,55
2016-05-03T01:47:09.193Z,55
2016-05-03T01:48:18.727Z,55
2016-05-03T01:48:31.961Z,55
2016-05-03T01:48:44.370Z,55
2016-05-03T01:48:56.823Z,55
2016-05-03T01:49:09.854Z,55
2016-05-03T01:49:22.448Z,55
2016-05-03T01:49:35.042Z,55
2016-05-03T01:49:47.373Z,55
2016-05-03T01:50:00.545Z,55
2016-05-03T01:50:13.091Z,55
2016-05-03T01:50:25.498Z,55
2016-05-03T01:50:38.013Z,55
2016-05-03T01:50:50.626Z,55
2016-05-03T01:51:02.907Z,55
2016-05-03T01:51:15.298Z,55
2016-05-03T01:51:27.829Z,55
2016-05-03T01:51:40.266Z,55
2016-05-03T01:51:52.878Z,55
2016-05-03T01:52:06.550Z,55
2016-05-03T01:52:19.550Z,55
2016-05-03T01:52:32.253Z,55
2016-05-03T01:52:45.132Z,55
2016-05-03T01:52:57.522Z,55
2016-05-03T01:53:10.132Z,55
2016-05-03T01:54:18.727Z,55
2016-05-03T01:54:31.149Z,55
2016-05-03T01:54:43.759Z,55
2016-05-03T01:54:56.136Z,55
2016-05-03T01:55:08.761Z,55
2016-05-03T01:55:21.214Z,54
2016-05-03T01:55:33.620Z,54
2016-05-03T01:55:46.171Z,54
2016-05-03T01:55:59.374Z,55
2016-05-03T01:56:11.749Z,55
2016-05-03T01:56:24.296Z,55
2016-05-03T01:56:36.890Z,55
2016-05-03T01:57:41.142Z,55
2016-05-03T01:57:53.628Z,55
2016-05-03T01:58:06.269Z,55
2016-05-03T01:58:18.644Z,54
2016-05-03T01:59:23.819Z,54
2016-05-03T01:59:36.147Z,54
2016-05-03T02:00:48.700Z,54
2016-05-03T02:01:01.137Z,54
2016-05-03T02:02:11.280Z,54
2016-05-03T02:02:23.858Z,54
2016-05-03T02:02:36.233Z,54
2016-05-03T02:02:48.642Z,54
2016-05-03T02:03:01.251Z,54
2016-05-03T02:04:11.208Z,54
2016-05-03T02:04:23.598Z,53
2016-05-03T02:04:36.254Z,53
2016-05-03T02:05:41.179Z,53
2016-05-03T02:06:53.699Z,53
2016-05-03T02:07:05.996Z,53
2016-05-03T02:07:18.621Z,53
2016-05-03T02:07:31.683Z,53
2016-05-03T02:07:44.855Z,53
2016-05-03T02:08:56.127Z,53
2016-05-03T02:09:08.564Z,53
2016-05-03T02:09:21.580Z,53
2016-05-03T02:09:34.877Z,53
2016-05-03T02:09:47.349Z,53
2016-05-03T02:11:53.697Z,53
2016-05-03T02:12:06.229Z,53
2016-05-03T02:12:18.822Z,53
2016-05-03T02:12:31.072Z,53
2016-05-03T02:12:43.572Z,53
2016-05-03T02:12:56.153Z,53
2016-05-03T02:14:58.612Z,54
2016-05-03T02:15:11.190Z,53
2016-05-03T02:15:24.424Z,53
2016-05-03T02:15:36.768Z,53
2016-05-03T02:15:49.271Z,53
2016-05-03T02:16:01.865Z,53
2016-05-03T02:16:14.271Z,53
2016-05-03T02:16:26.646Z,53
2016-05-03T02:16:39.177Z,53
2016-05-03T02:16:51.821Z,53
2016-05-03T02:17:04.211Z,53
2016-05-03T02:17:16.524Z,53
2016-05-03T02:17:29.164Z,53
2016-05-03T02:18:38.604Z,53
2016-05-03T02:18:50.982Z,53
2016-05-03T02:19:03.576Z,53
2016-05-03T02:19:16.091Z,53
2016-05-03T02:19:28.326Z,53
2016-05-03T02:19:40.857Z,53
2016-05-03T02:19:53.454Z,53
2016-05-03T02:20:05.938Z,53
2016-05-03T02:20:18.360Z,53
2016-05-03T02:20:31.422Z,53
2016-05-03T02:20:44.016Z,53
2016-05-03T02:20:56.582Z,53
2016-05-03T02:21:08.972Z,53
2016-05-03T02:21:21.582Z,53
2016-05-03T02:21:34.191Z,53
2016-05-03T02:21:46.584Z,53
2016-05-03T02:22:00.974Z,53
2016-05-03T02:22:13.521Z,53
2016-05-03T02:22:26.927Z,53
2016-05-03T02:22:41.474Z,53
2016-05-03T02:22:54.040Z,53
2016-05-03T02:23:06.430Z,53
2016-05-03T02:23:19.071Z,53
2016-05-03T02:23:31.509Z,53
2016-05-03T02:24:41.276Z,53
2016-05-03T02:24:53.873Z,53
2016-05-03T02:25:06.295Z,53
2016-05-03T02:25:18.685Z,53
2016-05-03T02:25:31.310Z,53
2016-05-03T02:25:43.717Z,53
2016-05-03T02:25:56.017Z,53
2016-05-03T02:26:08.563Z,53
2016-05-03T02:26:21.157Z,53
2016-05-03T02:26:33.595Z,53
2016-05-03T02:26:46.035Z,53
2016-05-03T02:26:58.488Z,53
2016-05-03T02:27:11.020Z,53
2016-05-03T02:28:18.662Z,53
2016-05-03T02:28:31.240Z,53
2016-05-03T02:28:43.850Z,53
2016-05-03T02:29:48.621Z,53
2016-05-03T02:30:01.184Z,53
2016-05-03T02:30:13.731Z,53
2016-05-03T02:31:26.062Z,53
2016-05-03T02:31:38.609Z,53
2016-05-03T02:32:48.753Z,53
2016-05-03T02:33:01.316Z,53
2016-05-03T02:33:13.894Z,53
2016-05-03T02:33:26.316Z,53
2016-05-03T02:33:38.769Z,53
2016-05-03T02:34:48.931Z,53
2016-05-03T02:35:01.244Z,53
2016-05-03T02:35:13.697Z,53
2016-05-03T02:37:11.171Z,53
2016-05-03T02:37:25.671Z,53
2016-05-03T02:37:38.733Z,53
2016-05-03T02:37:51.237Z,53
2016-05-03T02:38:03.690Z,53
2016-05-03T02:39:11.208Z,53
2016-05-03T02:39:23.630Z,53
2016-05-03T02:39:36.333Z,53
2016-05-03T02:39:48.788Z,53
2016-05-03T02:40:01.132Z,53
2016-05-03T02:42:11.403Z,53
2016-05-03T02:42:23.825Z,53
2016-05-03T02:42:36.153Z,53
2016-05-03T02:42:48.810Z,53
2016-05-03T02:43:01.297Z,53
2016-05-03T02:43:13.703Z,53
2016-05-03T02:44:21.206Z,53
2016-05-03T02:45:28.943Z,53
2016-05-03T02:45:41.364Z,53
2016-05-03T02:45:53.742Z,53
2016-05-03T02:46:06.305Z,53
2016-05-03T02:46:18.821Z,53
2016-05-03T02:46:31.180Z,53
2016-05-03T02:46:43.711Z,53
2016-05-03T02:46:56.277Z,53
2016-05-03T02:47:09.292Z,53
2016-05-03T02:47:21.839Z,53
2016-05-03T02:47:34.433Z,53
2016-05-03T02:47:46.839Z,53
2016-05-03T02:47:59.247Z,53
2016-05-03T02:49:08.938Z,53
2016-05-03T02:49:21.422Z,53
2016-05-03T02:49:33.719Z,53
2016-05-03T02:49:46.360Z,54
2016-05-03T02:49:58.924Z,54
2016-05-03T02:50:11.237Z,54
2016-05-03T02:50:23.768Z,54
2016-05-03T02:50:36.362Z,54
2016-05-03T02:50:48.784Z,54
2016-05-03T02:51:01.303Z,54
2016-05-03T02:51:13.928Z,54
2016-05-03T02:51:26.397Z,54
2016-05-03T02:51:38.772Z,54
2016-05-03T02:51:51.274Z,54
2016-05-03T02:52:03.946Z,54
2016-05-03T02:52:16.274Z,54
2016-05-03T02:52:31.587Z,53
2016-05-03T02:52:47.430Z,53
2016-05-03T02:53:00.011Z,54
2016-05-03T02:53:12.402Z,54
2016-05-03T02:53:25.058Z,54
2016-05-03T02:53:37.621Z,54
2016-05-03T02:53:49.918Z,54
2016-05-03T02:55:01.299Z,54
2016-05-03T02:55:13.721Z,54
2016-05-03T02:55:26.346Z,54
2016-05-03T02:55:38.861Z,54
2016-05-03T02:55:51.142Z,54
2016-05-03T02:56:04.363Z,54
2016-05-03T02:56:16.832Z,54
2016-05-03T02:56:29.098Z,54
2016-05-03T02:56:41.707Z,54
2016-05-03T02:56:54.257Z,54
2016-05-03T02:57:06.616Z,54
2016-05-03T02:57:19.101Z,54
2016-05-03T02:57:31.694Z,54
2016-05-03T02:58:36.010Z,54
2016-05-03T02:58:48.604Z,54
2016-05-03T02:59:00.918Z,54
2016-05-03T02:59:13.449Z,54
2016-05-03T03:00:18.968Z,54
2016-05-03T03:00:31.327Z,54
2016-05-03T03:01:43.923Z,54
2016-05-03T03:01:56.489Z,54
2016-05-03T03:03:06.007Z,54
2016-05-03T03:03:18.601Z,54
2016-05-03T03:03:31.163Z,54
2016-05-03T03:03:43.538Z,54
2016-05-03T03:03:56.088Z,54
2016-05-03T03:05:05.934Z,54
2016-05-03T03:05:18.372Z,54
2016-05-03T03:05:31.778Z,54
2016-05-03T03:06:43.625Z,55
2016-05-03T03:07:49.331Z,55
2016-05-03T03:08:01.973Z,55
2016-05-03T03:08:14.395Z,55
2016-05-03T03:08:26.880Z,54
2016-05-03T03:09:31.335Z,54
2016-05-03T03:09:43.694Z,54
2016-05-03T03:09:56.089Z,54
2016-05-03T03:10:08.651Z,54
2016-05-03T03:10:21.073Z,54
2016-05-03T03:12:26.156Z,54
2016-05-03T03:12:38.625Z,54
2016-05-03T03:12:51.016Z,54
2016-05-03T03:13:04.268Z,54
2016-05-03T03:13:16.752Z,54
2016-05-03T03:13:29.064Z,54
2016-05-03T03:14:41.287Z,54
2016-05-03T03:15:48.758Z,55
2016-05-03T03:16:01.214Z,55
2016-05-03T03:16:13.870Z,55
2016-05-03T03:16:26.370Z,55
2016-05-03T03:16:38.995Z,55
2016-05-03T03:16:51.511Z,55
2016-05-03T03:17:03.842Z,55
2016-05-03T03:17:16.545Z,55
2016-05-03T03:17:29.045Z,55
2016-05-03T03:17:41.405Z,54
2016-05-03T03:17:54.045Z,54
2016-05-03T03:18:06.438Z,55
2016-05-03T03:19:18.660Z,55
2016-05-03T03:19:32.035Z,54
2016-05-03T03:19:44.550Z,54
2016-05-03T03:19:56.974Z,54
2016-05-03T03:20:09.505Z,54
2016-05-03T03:20:22.177Z,54
2016-05-03T03:20:34.771Z,54
2016-05-03T03:20:47.130Z,54
2016-05-03T03:20:59.665Z,54
2016-05-03T03:21:12.196Z,54
2016-05-03T03:21:24.618Z,54
2016-05-03T03:21:37.102Z,54
2016-05-03T03:21:49.758Z,54
2016-05-03T03:22:03.011Z,54
2016-05-03T03:22:15.949Z,54
2016-05-03T03:22:30.824Z,54
2016-05-03T03:22:43.261Z,53
2016-05-03T03:22:55.886Z,53
2016-05-03T03:23:08.467Z,54
2016-05-03T03:23:21.077Z,54
2016-05-03T03:23:33.608Z,54
2016-05-03T03:23:46.717Z,54
2016-05-03T03:23:59.438Z,54
2016-05-03T03:24:11.860Z,53
2016-05-03T03:25:18.722Z,54
2016-05-03T03:25:31.363Z,54
2016-05-03T03:25:43.941Z,54
2016-05-03T03:25:56.426Z,54
2016-05-03T03:26:09.084Z,54
2016-05-03T03:26:21.615Z,54
2016-05-03T03:26:34.131Z,54
2016-05-03T03:26:46.474Z,54
2016-05-03T03:26:59.118Z,54
2016-05-03T03:27:11.712Z,54
2016-05-03T03:27:24.134Z,54
2016-05-03T03:27:36.743Z,54
2016-05-03T03:27:49.399Z,54
2016-05-03T03:28:55.965Z,54
2016-05-03T03:29:08.546Z,54
2016-05-03T03:29:21.140Z,54
2016-05-03T03:29:33.499Z,54
2016-05-03T03:30:38.971Z,54
2016-05-03T03:30:51.315Z,54
2016-05-03T03:32:03.835Z,53
2016-05-03T03:32:16.335Z,53
2016-05-03T03:33:26.026Z,53
2016-05-03T03:33:38.682Z,53
2016-05-03T03:33:51.182Z,54
2016-05-03T03:34:03.668Z,54
2016-05-03T03:34:16.278Z,54
2016-05-03T03:35:25.984Z,53
2016-05-03T03:35:38.515Z,53
2016-05-03T03:35:51.484Z,53
2016-05-03T03:37:55.895Z,53
2016-05-03T03:38:08.507Z,53
2016-05-03T03:38:20.914Z,53
2016-05-03T03:38:33.289Z,53
2016-05-03T03:38:45.945Z,53
2016-05-03T03:39:56.042Z,53
2016-05-03T03:40:08.481Z,53
2016-05-03T03:40:21.106Z,53
2016-05-03T03:40:33.637Z,53
2016-05-03T03:42:38.722Z,53
2016-05-03T03:42:52.050Z,54
2016-05-03T03:43:04.459Z,54
2016-05-03T03:43:16.881Z,54
2016-05-03T03:43:29.381Z,54
2016-05-03T03:43:42.006Z,54
2016-05-03T03:43:54.475Z,54
2016-05-03T03:46:01.278Z,54
2016-05-03T03:46:13.935Z,54
2016-05-03T03:46:26.419Z,54
2016-05-03T03:46:38.903Z,54
2016-05-03T03:46:51.544Z,54
2016-05-03T03:47:04.141Z,54
2016-05-03T03:47:16.547Z,54
2016-05-03T03:47:29.188Z,54
2016-05-03T03:47:41.781Z,54
2016-05-03T03:47:54.219Z,54
2016-05-03T03:48:06.863Z,54
2016-05-03T03:48:19.800Z,54
2016-05-03T03:48:32.363Z,54
2016-05-03T03:49:41.661Z,54
2016-05-03T03:49:54.755Z,54
2016-05-03T03:50:07.259Z,54
2016-05-03T03:50:19.869Z,54
2016-05-03T03:50:32.322Z,54
2016-05-03T03:50:44.790Z,54
2016-05-03T03:50:57.431Z,54
2016-05-03T03:51:09.808Z,54
2016-05-03T03:51:22.183Z,54
2016-05-03T03:51:34.777Z,54
2016-05-03T03:51:47.339Z,54
2016-05-03T03:51:59.936Z,54
2016-05-03T03:52:14.483Z,54
2016-05-03T03:52:28.561Z,54
2016-05-03T03:52:42.092Z,54
2016-05-03T03:52:54.639Z,54
2016-05-03T03:53:07.016Z,54
2016-05-03T03:53:19.735Z,54
2016-05-03T03:53:32.235Z,54
2016-05-03T03:53:44.704Z,54
2016-05-03T03:53:57.282Z,54
2016-05-03T03:54:09.894Z,54
2016-05-03T03:54:22.394Z,54
2016-05-03T03:54:34.738Z,54
2016-05-03T03:55:43.881Z,54
2016-05-03T03:55:56.412Z,54
2016-05-03T03:56:08.697Z,54
2016-05-03T03:56:21.244Z,54
2016-05-03T03:56:33.791Z,54
2016-05-03T03:56:46.228Z,53
2016-05-03T03:56:58.762Z,53
2016-05-03T03:57:11.402Z,53
2016-05-03T03:57:23.777Z,53
2016-05-03T03:57:36.824Z,53
2016-05-03T03:57:49.402Z,53
2016-05-03T03:58:02.029Z,53
2016-05-03T03:58:14.435Z,53
2016-05-03T03:59:18.892Z,53
2016-05-03T03:59:31.407Z,53
2016-05-03T03:59:43.845Z,53
2016-05-03T04:00:48.660Z,53
2016-05-03T04:01:01.304Z,53
2016-05-03T04:01:13.726Z,53
2016-05-03T04:02:26.182Z,53
2016-05-03T04:02:38.760Z,53
2016-05-03T04:03:48.746Z,53
2016-05-03T04:04:01.249Z,53
2016-05-03T04:04:13.843Z,53
2016-05-03T04:04:26.437Z,53
2016-05-03T04:04:38.890Z,53
2016-05-03T04:05:49.659Z,54
2016-05-03T04:06:02.646Z,54
2016-05-03T04:06:15.099Z,54
2016-05-03T04:08:18.978Z,53
2016-05-03T04:08:31.572Z,53
2016-05-03T04:08:43.916Z,53
2016-05-03T04:08:56.431Z,53
2016-05-03T04:09:09.059Z,53
2016-05-03T04:10:18.797Z,53
2016-05-03T04:10:31.218Z,53
2016-05-03T04:10:43.578Z,53
2016-05-03T04:10:56.187Z,53
2016-05-03T04:13:01.149Z,53
2016-05-03T04:13:13.618Z,53
2016-05-03T04:13:26.290Z,53
2016-05-03T04:13:38.759Z,53
2016-05-03T04:13:51.321Z,53
2016-05-03T04:14:03.916Z,53
2016-05-03T04:16:08.688Z,53
2016-05-03T04:16:21.078Z,53
2016-05-03T04:16:33.641Z,53
2016-05-03T04:16:45.906Z,53
2016-05-03T04:16:59.191Z,53
2016-05-03T04:17:11.628Z,53
2016-05-03T04:17:24.081Z,53
2016-05-03T04:17:36.659Z,53
2016-05-03T04:17:49.987Z,53
2016-05-03T04:18:02.365Z,53
2016-05-03T04:18:14.975Z,53
2016-05-03T04:18:27.537Z,53
2016-05-03T04:18:39.881Z,53
2016-05-03T04:18:52.444Z,53
2016-05-03T04:20:03.964Z,53
2016-05-03T04:20:17.058Z,53
2016-05-03T04:20:29.605Z,53
2016-05-03T04:20:42.074Z,53
2016-05-03T04:20:54.652Z,53
2016-05-03T04:21:07.268Z,53
2016-05-03T04:21:19.690Z,53
2016-05-03T04:21:32.252Z,53
2016-05-03T04:21:44.924Z,53
2016-05-03T04:21:57.331Z,53
2016-05-03T04:22:09.817Z,53
2016-05-03T04:22:22.395Z,53
2016-05-03T04:23:31.336Z,53
2016-05-03T04:23:43.773Z,53
2016-05-03T04:23:56.305Z,53
2016-05-03T04:24:08.979Z,53
2016-05-03T04:24:21.400Z,53
2016-05-03T04:24:33.869Z,53
2016-05-03T04:24:46.447Z,53
2016-05-03T04:24:58.997Z,53
2016-05-03T04:25:12.185Z,53
2016-05-03T04:25:24.747Z,53
2016-05-03T04:25:37.325Z,53
2016-05-03T04:26:43.949Z,53
2016-05-03T04:26:56.558Z,53
2016-05-03T04:27:09.140Z,53
2016-05-03T04:27:21.609Z,53
2016-05-03T04:27:34.031Z,53
2016-05-03T04:27:46.562Z,53
2016-05-03T04:27:59.830Z,53
2016-05-03T04:28:12.315Z,53
2016-05-03T04:28:24.799Z,53
2016-05-03T04:28:37.877Z,53
2016-05-03T04:28:50.455Z,53
2016-05-03T04:29:02.819Z,53
2016-05-03T04:29:15.428Z,53
2016-05-03T04:29:28.022Z,53
2016-05-03T04:29:40.428Z,53
2016-05-03T04:29:53.022Z,53
2016-05-03T04:30:05.526Z,53
2016-05-03T04:31:09.340Z,53
2016-05-03T04:31:22.044Z,53
2016-05-03T04:32:34.020Z,54
2016-05-03T04:32:49.989Z,54
2016-05-03T04:34:53.992Z,53
2016-05-03T04:35:06.345Z,53
2016-05-03T04:35:18.939Z,53
2016-05-03T04:35:31.533Z,53
2016-05-03T04:35:43.970Z,53
2016-05-03T04:36:54.165Z,53
2016-05-03T04:37:09.124Z,53
2016-05-03T04:37:23.671Z,53
2016-05-03T04:37:37.155Z,53
2016-05-03T04:37:51.358Z,53
2016-05-03T04:38:59.191Z,53
2016-05-03T04:39:11.820Z,53
2016-05-03T04:39:24.273Z,53
2016-05-03T04:39:36.742Z,53
2016-05-03T04:39:50.008Z,53
2016-05-03T04:40:59.201Z,53
2016-05-03T04:41:11.753Z,53
2016-05-03T04:41:24.409Z,53
2016-05-03T04:41:36.941Z,53
2016-05-03T04:43:41.698Z,53
2016-05-03T04:43:54.182Z,53
2016-05-03T04:44:06.623Z,53
2016-05-03T04:44:19.357Z,53
2016-05-03T04:44:31.841Z,53
2016-05-03T04:44:44.216Z,53
2016-05-03T04:44:57.388Z,53
2016-05-03T04:47:09.195Z,53
2016-05-03T04:47:22.258Z,53
2016-05-03T04:47:34.914Z,53
2016-05-03T04:47:47.461Z,53
2016-05-03T04:47:59.804Z,54
2016-05-03T04:48:12.495Z,53
2016-05-03T04:48:24.948Z,54
2016-05-03T04:48:37.542Z,54
2016-05-03T04:48:49.964Z,54
2016-05-03T04:49:02.357Z,54
2016-05-03T04:49:15.076Z,54
2016-05-03T04:49:27.592Z,54
2016-05-03T04:49:40.045Z,54
2016-05-03T04:50:44.188Z,54
2016-05-03T04:50:56.673Z,54
2016-05-03T04:51:09.145Z,54
2016-05-03T04:51:21.676Z,54
2016-05-03T04:51:34.270Z,54
2016-05-03T04:51:46.785Z,54
2016-05-03T04:51:59.191Z,54
2016-05-03T04:52:11.757Z,54
2016-05-03T04:52:24.304Z,54
2016-05-03T04:52:38.241Z,54
2016-05-03T04:52:51.538Z,54
2016-05-03T04:53:04.181Z,54
2016-05-03T04:54:09.090Z,54
2016-05-03T04:54:21.590Z,54
2016-05-03T04:54:34.793Z,54
2016-05-03T04:54:47.246Z,54
2016-05-03T04:54:59.668Z,54
2016-05-03T04:55:12.359Z,54
2016-05-03T04:55:24.687Z,54
2016-05-03T04:55:37.327Z,54
2016-05-03T04:55:49.843Z,54
2016-05-03T04:56:02.299Z,54
2016-05-03T04:56:14.955Z,54
2016-05-03T04:57:21.536Z,54
2016-05-03T04:57:34.004Z,54
2016-05-03T04:57:47.176Z,54
2016-05-03T04:57:59.832Z,54
2016-05-03T04:58:12.304Z,54
2016-05-03T04:58:24.867Z,54
2016-05-03T04:58:38.179Z,54
2016-05-03T04:58:50.679Z,54
2016-05-03T04:59:03.151Z,54
2016-05-03T04:59:15.713Z,54
2016-05-03T04:59:29.042Z,54
2016-05-03T04:59:41.448Z,54
2016-05-03T04:59:53.901Z,54
2016-05-03T05:00:06.528Z,54
2016-05-03T05:00:19.497Z,54
2016-05-03T05:00:31.856Z,54
2016-05-03T05:00:44.465Z,54
2016-05-03T05:01:51.531Z,54
2016-05-03T05:02:04.018Z,54
2016-05-03T05:02:16.675Z,54
2016-05-03T05:03:19.349Z,54
2016-05-03T05:04:29.023Z,54
2016-05-03T05:05:39.073Z,54
2016-05-03T05:05:52.886Z,54
2016-05-03T05:06:05.606Z,54
2016-05-03T05:06:18.013Z,54
2016-05-03T05:06:30.622Z,54
2016-05-03T05:07:41.688Z,54
2016-05-03T05:07:54.547Z,54
2016-05-03T05:08:07.097Z,54
2016-05-03T05:09:14.209Z,53
2016-05-03T05:09:26.631Z,54
2016-05-03T05:09:39.319Z,54
2016-05-03T05:09:51.725Z,53
2016-05-03T05:10:04.367Z,53
2016-05-03T05:11:14.230Z,53
2016-05-03T05:11:26.699Z,54
2016-05-03T05:11:39.292Z,54
2016-05-03T05:11:52.636Z,54
2016-05-03T05:12:05.170Z,54
2016-05-03T05:14:16.613Z,58
2016-05-03T05:14:29.191Z,58
2016-05-03T05:14:41.816Z,59
2016-05-03T05:14:54.503Z,59
2016-05-03T05:15:07.116Z,60
2016-05-03T05:15:19.381Z,60
2016-05-03T05:17:24.246Z,59
2016-05-03T05:17:36.730Z,58
2016-05-03T05:17:49.730Z,58
2016-05-03T05:18:02.311Z,58
2016-05-03T05:18:14.968Z,59
2016-05-03T05:18:27.327Z,59
2016-05-03T05:18:39.999Z,59
2016-05-03T05:18:52.655Z,60
2016-05-03T05:19:05.095Z,60